Time;durP1;ratioP1;P1;durP2;ratioP2;P2;SDS_P1;SDS_P2;PMS_P1;PMS_P2;Temp;Humidity;BMP_temperature;BMP_pressure;BME280_temperature;BME280_humidity;BME280_pressure;Samples;Min_cycle;Max_cycle;Signal;HPM_P1;HPM_P2
2022/07/12 00:01:06;;;;;;;4.70;2.30;;;;;;;25.53;45.97;98729.25;5012830;28;20040;-66
2022/07/12 00:03:33;;;;;;;2.85;2.08;;;;;;;25.50;46.26;98727.84;5011362;28;20164;-66
2022/07/12 00:05:59;;;;;;;3.80;1.83;;;;;;;25.50;46.29;98722.41;5011909;28;20493;-67
2022/07/12 00:08:25;;;;;;;2.33;1.83;;;;;;;25.49;46.88;98728.06;5009651;28;20502;-67
2022/07/12 00:10:51;;;;;;;2.55;2.03;;;;;;;25.46;46.38;98728.53;5012140;28;20041;-68
2022/07/12 00:13:17;;;;;;;5.28;2.20;;;;;;;25.44;46.41;98723.38;5011953;28;20060;-68
2022/07/12 00:15:43;;;;;;;2.60;1.80;;;;;;;25.44;46.79;98723.38;5011400;28;20053;-69
2022/07/12 00:18:09;;;;;;;3.30;1.90;;;;;;;25.42;46.71;98722.78;5013305;28;20453;-68
2022/07/12 00:20:36;;;;;;;2.65;2.30;;;;;;;25.42;46.84;98720.91;5010775;28;20044;-67
2022/07/12 00:23:01;;;;;;;3.35;1.98;;;;;;;25.42;46.81;98717.34;5018241;28;20061;-68
2022/07/12 00:25:27;;;;;;;4.03;2.17;;;;;;;25.40;46.93;98716.75;5015112;28;20539;-67
2022/07/12 00:27:52;;;;;;;4.35;2.25;;;;;;;25.36;47.19;98718.31;5010812;28;20124;-70
2022/07/12 00:30:18;;;;;;;3.03;2.40;;;;;;;25.34;47.09;98706.88;5013214;28;20401;-67
2022/07/12 00:32:44;;;;;;;6.88;2.40;;;;;;;25.38;47.04;98716.16;5012116;28;20030;-67
2022/07/12 00:35:10;;;;;;;3.83;1.90;;;;;;;25.39;47.00;98712.38;5026742;28;20124;-68
2022/07/12 00:37:35;;;;;;;3.75;2.15;;;;;;;25.34;47.02;98709.59;5012052;28;20045;-67
2022/07/12 00:40:01;;;;;;;3.00;2.03;;;;;;;25.36;46.90;98710.19;5012040;28;20073;-66
2022/07/12 00:42:27;;;;;;;9.63;2.65;;;;;;;25.37;47.20;98711.78;5006880;28;20026;-64
2022/07/12 00:44:53;;;;;;;3.65;2.03;;;;;;;25.35;46.94;98703.13;5011431;28;20060;-64
2022/07/12 00:47:46;;;;;;;5.95;2.90;;;;;;;25.38;47.08;98711.56;5011501;28;20432;-66
2022/07/12 00:50:15;;;;;;;5.55;2.63;;;;;;;25.36;47.32;98699.34;5003731;28;20050;-64
2022/07/12 00:52:42;;;;;;;5.85;3.72;;;;;;;25.31;47.40;98697.31;5013846;28;20197;-65
2022/07/12 00:55:08;;;;;;;5.15;2.75;;;;;;;25.25;47.23;98685.56;5016540;28;20029;-65
2022/07/12 00:57:39;;;;;;;5.00;2.50;;;;;;;25.19;47.42;98686.53;5016136;28;20034;-65
2022/07/12 01:00:07;;;;;;;4.40;2.22;;;;;;;25.17;47.60;98674.28;5015660;28;20048;-65
2022/07/12 01:02:34;;;;;;;8.52;2.25;;;;;;;25.10;47.89;98672.53;5014283;28;20033;-64
2022/07/12 01:05:02;;;;;;;5.50;2.45;;;;;;;25.06;47.78;98657.03;5014809;28;20042;-65
2022/07/12 01:07:28;;;;;;;2.38;2.15;;;;;;;25.02;47.90;98655.84;5004531;28;20044;-65
2022/07/12 01:09:54;;;;;;;3.67;2.47;;;;;;;24.95;48.07;98651.38;5013938;28;20042;-66
2022/07/12 01:12:24;;;;;;;3.42;2.47;;;;;;;24.92;47.98;98651.88;5013444;28;20072;-65
2022/07/12 01:14:51;;;;;;;7.05;2.33;;;;;;;24.83;48.48;98645.16;5015466;28;20057;-67
2022/07/12 01:17:19;;;;;;;3.28;2.60;;;;;;;24.82;48.34;98647.03;5015243;28;20041;-68
2022/07/12 01:19:46;;;;;;;3.13;2.15;;;;;;;24.84;48.19;98644.09;5025745;28;20026;-68
2022/07/12 01:22:15;;;;;;;7.25;3.38;;;;;;;24.88;48.40;98649.84;5028540;28;20076;-66
2022/07/12 01:24:41;;;;;;;4.45;2.70;;;;;;;24.89;48.62;98648.78;5029323;28;20042;-66
2022/07/12 01:27:07;;;;;;;4.15;2.33;;;;;;;24.88;48.43;98647.97;5029863;28;20100;-67
2022/07/12 01:29:33;;;;;;;2.95;2.20;;;;;;;24.89;47.98;98633.38;5029490;28;20030;-65
2022/07/12 01:34:54;;;;;;;3.75;2.10;;;;;;;24.79;48.20;98633.97;5022040;28;20029;-66
2022/07/12 01:37:21;;;;;;;4.88;2.15;;;;;;;24.76;48.03;98634.44;5023034;28;20256;-64
2022/07/12 01:39:52;;;;;;;4.75;2.53;;;;;;;24.73;48.30;98615.16;5022244;28;20167;-67
2022/07/12 01:42:18;;;;;;;5.45;2.47;;;;;;;24.68;48.67;98608.56;5017027;28;20301;-67
2022/07/12 01:44:44;;;;;;;3.92;2.65;;;;;;;24.64;48.60;98599.25;5028003;28;20026;-67
2022/07/12 01:47:10;;;;;;;3.67;2.20;;;;;;;24.63;48.48;98600.31;5028309;28;20026;-67
2022/07/12 01:49:35;;;;;;;6.25;3.08;;;;;;;24.71;48.47;98592.94;5028097;28;20042;-68
2022/07/12 01:52:01;;;;;;;4.20;2.65;;;;;;;24.75;48.05;98578.69;5026542;28;20053;-67
2022/07/12 01:54:27;;;;;;;2.83;2.35;;;;;;;24.77;48.20;98592.81;5026868;28;20080;-67
2022/07/12 01:56:52;;;;;;;10.60;2.95;;;;;;;24.80;48.21;98596.91;5014094;28;20030;-66
2022/07/12 01:59:19;;;;;;;5.75;2.92;;;;;;;24.76;48.49;98603.88;5027590;28;20080;-67
2022/07/12 02:01:45;;;;;;;6.18;2.80;;;;;;;24.76;48.71;98601.19;5027476;28;20120;-68
2022/07/12 02:04:11;;;;;;;4.88;2.83;;;;;;;24.72;48.36;98592.69;5026806;28;20037;-65
2022/07/12 02:06:38;;;;;;;3.55;2.70;;;;;;;24.75;48.66;98580.59;5027383;28;20061;-67
2022/07/12 02:09:04;;;;;;;3.50;2.70;;;;;;;24.75;48.38;98578.69;5027608;28;20223;-68
2022/07/12 02:11:30;;;;;;;4.70;2.38;;;;;;;24.78;48.43;98580.09;5027059;28;20044;-67
2022/07/12 02:13:56;;;;;;;5.60;3.20;;;;;;;24.80;48.52;98570.69;5024137;28;20116;-66
2022/07/12 02:16:21;;;;;;;4.82;3.13;;;;;;;24.76;48.78;98563.31;5027234;28;20057;-66
2022/07/12 02:18:47;;;;;;;5.13;2.80;;;;;;;24.75;48.74;98553.53;5028290;28;20140;-66
2022/07/12 02:21:12;;;;;;;6.40;2.58;;;;;;;24.78;49.08;98562.00;5027235;28;20041;-68
2022/07/12 02:23:38;;;;;;;3.50;2.67;;;;;;;24.80;48.61;98553.63;5025298;28;20088;-66
2022/07/12 02:26:03;;;;;;;4.20;2.58;;;;;;;24.79;48.90;98552.81;5027236;28;20029;-66
2022/07/12 02:28:29;;;;;;;7.38;2.90;;;;;;;24.80;48.97;98557.19;5027276;28;20174;-67
2022/07/12 02:30:55;;;;;;;7.20;2.95;;;;;;;24.77;48.86;98546.03;5027369;28;20038;-67
2022/07/12 02:33:20;;;;;;;4.53;2.70;;;;;;;24.80;49.02;98550.94;5025587;28;20273;-67
2022/07/12 02:35:46;;;;;;;6.18;3.22;;;;;;;24.79;48.79;98543.88;5009002;28;20094;-67
2022/07/12 02:38:11;;;;;;;5.85;3.38;;;;;;;24.75;49.00;98551.66;5026684;28;20029;-67
2022/07/12 02:40:55;;;;;;;11.32;3.55;;;;;;;24.76;49.06;98550.59;5013734;28;20072;-66
2022/07/12 02:43:29;;;;;;;6.50;2.90;;;;;;;24.75;49.30;98551.66;5012810;28;20242;-66
2022/07/12 02:46:04;;;;;;;3.60;3.00;;;;;;;24.78;48.91;98561.16;5026833;28;20093;-67
2022/07/12 02:48:29;;;;;;;5.75;2.95;;;;;;;24.79;49.18;98562.81;5027551;28;20097;-65
2022/07/12 02:50:55;;;;;;;6.65;3.35;;;;;;;24.84;49.07;98554.81;5026585;28;20053;-66
2022/07/12 02:53:20;;;;;;;4.30;3.08;;;;;;;24.85;48.82;98559.16;5026654;28;20032;-66
2022/07/12 02:55:46;;;;;;;3.53;2.78;;;;;;;24.93;48.93;98555.25;5028121;28;20037;-67
2022/07/12 02:58:12;;;;;;;6.65;3.78;;;;;;;24.92;49.08;98565.28;5028150;28;20036;-67
2022/07/12 03:00:38;;;;;;;5.63;3.30;;;;;;;24.88;48.92;98553.28;5016680;28;20080;-67
2022/07/12 03:03:04;;;;;;;4.03;2.58;;;;;;;24.82;49.25;98555.06;5024227;28;20069;-67
2022/07/12 03:05:29;;;;;;;4.55;2.83;;;;;;;24.85;49.14;98561.88;5028153;28;20194;-67
2022/07/12 03:07:55;;;;;;;5.57;2.70;;;;;;;24.87;48.99;98567.03;5027982;28;20030;-68
2022/07/12 03:10:20;;;;;;;4.78;3.47;;;;;;;24.92;49.26;98570.69;5027389;28;20037;-68
2022/07/12 03:12:46;;;;;;;2.97;2.40;;;;;;;24.92;49.21;98577.97;5027470;28;20025;-67
2022/07/12 03:15:12;;;;;;;4.80;2.78;;;;;;;24.93;49.05;98575.00;5027557;28;20076;-67
2022/07/12 03:17:38;;;;;;;4.70;2.70;;;;;;;24.94;48.63;98567.72;5027778;28;20034;-68
2022/07/12 03:20:11;;;;;;;5.78;3.08;;;;;;;24.91;48.88;98569.03;5027812;28;20061;-68
2022/07/12 03:22:37;;;;;;;6.18;3.05;;;;;;;24.86;48.97;98568.94;5027552;28;20037;-67
2022/07/12 03:25:02;;;;;;;3.40;2.25;;;;;;;24.87;48.94;98583.25;5027787;28;20037;-67
2022/07/12 03:27:28;;;;;;;4.07;2.65;;;;;;;24.90;49.18;98580.94;5027713;28;20278;-67
2022/07/12 03:29:53;;;;;;;3.28;2.70;;;;;;;24.94;48.87;98576.66;5027154;28;20038;-65
2022/07/12 03:32:19;;;;;;;5.05;3.40;;;;;;;24.96;49.00;98582.66;5027280;28;20124;-67
2022/07/12 03:34:44;;;;;;;7.38;3.15;;;;;;;24.92;49.01;98578.81;5011161;28;20033;-67
2022/07/12 03:37:10;;;;;;;4.80;3.42;;;;;;;24.89;48.85;98579.28;5009587;28;20236;-67
2022/07/12 03:39:35;;;;;;;4.85;2.92;;;;;;;24.92;48.96;98570.69;5027279;28;20057;-67
2022/07/12 03:42:01;;;;;;;6.28;2.55;;;;;;;24.97;49.19;98576.19;5010517;28;20022;-67
2022/07/12 03:44:26;;;;;;;6.22;2.80;;;;;;;25.03;48.75;98569.00;5027455;28;20105;-66
2022/07/12 03:46:51;;;;;;;6.63;3.35;;;;;;;25.04;48.72;98569.84;5026836;28;20235;-67
2022/07/12 03:49:17;;;;;;;6.35;3.28;;;;;;;25.05;48.82;98568.78;5026959;28;20046;-67
2022/07/12 03:51:43;;;;;;;4.88;2.88;;;;;;;25.11;48.48;98565.94;5027154;28;20029;-66
2022/07/12 03:54:08;;;;;;;6.78;3.13;;;;;;;25.13;48.69;98577.34;5027252;28;20087;-67
2022/07/12 03:59:19;;;;;;;5.35;2.95;;;;;;;25.28;48.49;98573.28;5026975;28;20056;-67
2022/07/12 04:01:44;;;;;;;7.75;3.42;;;;;;;25.26;48.59;98578.94;5026718;28;20041;-67
2022/07/12 04:04:10;;;;;;;7.82;3.65;;;;;;;25.23;48.55;98587.53;5027070;28;20286;-67
2022/07/12 04:06:35;;;;;;;5.30;3.80;;;;;;;25.25;48.37;98584.59;5026579;28;20040;-68
2022/07/12 04:09:00;;;;;;;8.60;3.22;;;;;;;25.33;48.72;98600.44;5027083;28;20037;-68
2022/07/12 04:11:26;;;;;;;7.10;3.40;;;;;;;25.40;48.45;98603.00;5026876;28;20101;-67
2022/07/12 04:13:51;;;;;;;7.05;3.70;;;;;;;25.43;48.50;98599.84;5011107;28;20255;-67
2022/07/12 04:16:17;;;;;;;7.63;3.72;;;;;;;25.47;48.35;98594.78;5023951;28;20319;-67
2022/07/12 04:18:42;;;;;;;6.78;3.58;;;;;;;25.50;48.46;98597.00;5026828;28;20073;-67
2022/07/12 04:21:08;;;;;;;4.45;3.30;;;;;;;25.48;48.66;98596.41;5026827;28;20029;-67
2022/07/12 04:23:33;;;;;;;7.75;3.08;;;;;;;25.50;48.57;98610.53;5026396;28;20283;-67
2022/07/12 04:25:59;;;;;;;7.18;3.75;;;;;;;25.52;48.36;98595.69;5026766;28;20155;-67
2022/07/12 04:28:24;;;;;;;6.28;3.65;;;;;;;25.53;48.38;98601.94;5026173;28;20049;-67
2022/07/12 04:30:50;;;;;;;8.10;3.83;;;;;;;25.56;48.34;98601.47;5026710;28;20117;-67
2022/07/12 04:33:15;;;;;;;7.68;3.80;;;;;;;25.55;48.47;98606.03;5025941;28;20147;-67
2022/07/12 04:35:41;;;;;;;14.35;3.88;;;;;;;25.50;48.57;98611.38;5026787;28;20084;-67
2022/07/12 04:38:07;;;;;;;7.45;4.15;;;;;;;25.45;48.84;98600.44;5025932;28;20097;-67
2022/07/12 04:40:33;;;;;;;11.88;6.75;;;;;;;25.43;48.80;98602.56;5007049;28;20039;-67
2022/07/12 04:42:58;;;;;;;9.55;4.10;;;;;;;25.39;48.85;98607.63;5016811;28;20030;-67
2022/07/12 04:45:24;;;;;;;9.43;4.38;;;;;;;25.41;48.96;98608.22;5026655;28;20037;-65
2022/07/12 04:47:49;;;;;;;6.20;4.05;;;;;;;25.42;48.97;98611.75;5026135;28;20127;-67
2022/07/12 04:50:15;;;;;;;6.68;4.32;;;;;;;25.41;49.25;98616.34;5026672;28;20044;-67
2022/07/12 04:52:40;;;;;;;14.18;4.10;;;;;;;25.44;48.92;98604.22;5025947;28;20080;-66
2022/07/12 04:55:06;;;;;;;10.85;3.97;;;;;;;25.46;49.14;98607.50;5026640;28;20044;-67
2022/07/12 04:57:32;;;;;;;6.05;4.10;;;;;;;25.43;49.25;98607.97;5025374;28;20037;-66
2022/07/12 04:59:58;;;;;;;7.68;4.10;;;;;;;25.42;49.07;98618.00;5026374;28;20034;-66
2022/07/12 05:02:23;;;;;;;5.82;4.03;;;;;;;25.41;49.07;98610.06;5026129;28;20041;-66
2022/07/12 05:04:49;;;;;;;11.85;4.60;;;;;;;25.42;49.16;98619.88;5026417;28;20124;-65
2022/07/12 05:07:14;;;;;;;10.43;4.90;;;;;;;25.41;49.19;98620.91;5026189;28;20223;-66
2022/07/12 05:09:40;;;;;;;8.40;3.95;;;;;;;25.39;49.30;98623.03;5026497;28;20291;-65
2022/07/12 05:12:06;;;;;;;6.75;4.47;;;;;;;25.35;49.26;98619.19;5024793;28;20033;-67
2022/07/12 05:14:31;;;;;;;8.73;3.58;;;;;;;25.34;49.08;98618.34;5006597;28;20034;-67
2022/07/12 05:16:57;;;;;;;8.38;3.75;;;;;;;25.32;49.50;98616.94;5009924;28;20046;-67
2022/07/12 05:19:23;;;;;;;6.15;3.80;;;;;;;25.24;49.64;98610.81;5026106;28;20045;-67
2022/07/12 05:21:49;;;;;;;7.07;4.00;;;;;;;25.20;49.51;98623.22;5025805;28;20030;-68
2022/07/12 05:24:14;;;;;;;5.43;4.25;;;;;;;25.19;49.38;98624.28;5026344;28;20044;-68
2022/07/12 05:26:40;;;;;;;7.63;4.10;;;;;;;25.17;49.77;98615.56;5026156;28;20030;-66
2022/07/12 05:29:05;;;;;;;11.55;4.03;;;;;;;25.17;49.54;98620.97;5025945;28;20038;-67
2022/07/12 05:31:31;;;;;;;8.70;4.25;;;;;;;25.16;49.56;98618.50;5026099;28;20060;-67
2022/07/12 05:33:56;;;;;;;11.48;4.20;;;;;;;25.13;49.77;98619.81;5026068;28;20100;-67
2022/07/12 05:36:21;;;;;;;4.90;3.70;;;;;;;25.14;49.41;98622.28;5026110;28;20030;-66
2022/07/12 05:38:47;;;;;;;8.70;3.72;;;;;;;25.19;49.73;98620.72;5026871;28;20022;-69
2022/07/12 05:41:13;;;;;;;5.07;4.00;;;;;;;25.24;49.35;98629.78;5029361;28;20128;-68
2022/07/12 05:43:38;;;;;;;12.45;4.65;;;;;;;25.21;49.69;98614.03;5028510;28;20033;-67
2022/07/12 05:46:04;;;;;;;7.35;4.00;;;;;;;25.26;49.44;98622.25;5029613;28;20060;-67
2022/07/12 05:48:30;;;;;;;5.22;4.28;;;;;;;25.29;49.37;98618.25;5029460;28;20191;-67
2022/07/12 05:53:21;;;;;;;6.10;4.68;;;;;;;25.27;49.25;98626.59;5029379;28;20037;-67
2022/07/12 05:53:41;;;;;;;6.93;4.32;;;;;;;25.22;49.39;98625.69;5023731;28;20076;-66
2022/07/12 05:56:06;;;;;;;8.15;3.50;;;;;;;25.23;49.48;98636.25;5029263;28;20048;-66
2022/07/12 05:58:31;;;;;;;14.23;4.43;;;;;;;25.26;49.84;98624.94;5028907;28;20046;-68
2022/07/12 06:00:57;;;;;;;9.13;4.55;;;;;;;25.27;50.92;98637.44;5029339;28;20030;-66
2022/07/12 06:03:23;;;;;;;9.65;4.05;;;;;;;25.22;51.31;98637.31;5023873;28;20029;-67
2022/07/12 06:05:48;;;;;;;8.20;3.90;;;;;;;25.20;51.22;98623.22;5029075;28;20131;-66
2022/07/12 06:08:14;;;;;;;6.78;4.28;;;;;;;25.16;51.13;98637.44;5028816;28;20064;-67
2022/07/12 06:10:39;;;;;;;8.80;4.43;;;;;;;25.10;51.77;98634.66;5028500;28;20045;-67
2022/07/12 06:13:05;;;;;;;7.05;4.18;;;;;;;25.06;51.84;98633.47;5028505;28;20137;-67
2022/07/12 06:15:30;;;;;;;6.78;3.85;;;;;;;25.08;52.13;98633.22;5028153;28;20109;-67
2022/07/12 06:17:56;;;;;;;7.68;4.05;;;;;;;25.08;51.66;98633.22;5028339;28;20231;-65
2022/07/12 06:20:22;;;;;;;5.32;4.13;;;;;;;25.06;51.71;98640.78;5028606;28;20297;-67
2022/07/12 06:22:48;;;;;;;9.90;4.18;;;;;;;24.99;51.61;98633.59;5028603;28;20034;-67
2022/07/12 06:25:14;;;;;;;9.23;4.18;;;;;;;25.03;51.49;98630.44;5028500;28;20030;-68
2022/07/12 06:27:39;;;;;;;7.55;4.22;;;;;;;25.06;51.64;98629.97;5028075;28;20110;-68
2022/07/12 06:30:06;;;;;;;9.10;5.00;;;;;;;25.04;51.27;98624.75;5028901;28;20022;-68
2022/07/12 06:32:31;;;;;;;10.52;4.57;;;;;;;25.02;51.82;98642.31;5027977;28;20290;-67
2022/07/12 06:34:57;;;;;;;7.82;4.55;;;;;;;24.98;51.58;98634.66;5028240;28;20033;-66
2022/07/12 06:37:22;;;;;;;10.80;4.10;;;;;;;25.02;51.88;98645.81;5028377;28;20223;-68
2022/07/12 06:39:48;;;;;;;9.32;4.38;;;;;;;25.05;51.61;98652.66;5027719;28;20096;-66
2022/07/12 06:42:13;;;;;;;10.63;4.63;;;;;;;25.04;51.88;98651.81;5028268;28;20230;-67
2022/07/12 06:44:39;;;;;;;9.65;5.00;;;;;;;24.97;51.70;98659.25;5028385;28;20038;-67
2022/07/12 06:47:04;;;;;;;12.35;4.88;;;;;;;24.94;51.50;98659.72;5028056;28;20025;-68
2022/07/12 06:49:30;;;;;;;6.85;3.97;;;;;;;24.90;51.87;98659.38;5027267;28;20143;-67
2022/07/12 06:51:56;;;;;;;7.72;4.95;;;;;;;24.88;52.19;98652.56;5024157;28;20026;-65
2022/07/12 06:54:21;;;;;;;8.05;4.70;;;;;;;24.88;52.20;98655.25;5027972;28;20136;-67
2022/07/12 06:56:47;;;;;;;9.13;4.88;;;;;;;24.87;52.23;98662.56;5027772;28;20045;-66
2022/07/12 06:59:12;;;;;;;13.32;5.18;;;;;;;24.83;52.23;98658.69;5028459;28;20026;-66
2022/07/12 07:01:38;;;;;;;8.68;4.32;;;;;;;24.82;52.20;98662.44;5027962;28;20095;-66
2022/07/12 07:04:04;;;;;;;8.50;4.53;;;;;;;24.84;52.51;98660.31;5028152;28;20105;-65
2022/07/12 07:06:29;;;;;;;10.30;4.68;;;;;;;24.86;52.48;98681.72;5028002;28;20065;-66
2022/07/12 07:08:55;;;;;;;9.52;4.63;;;;;;;24.86;52.54;98665.47;5027992;28;20038;-66
2022/07/12 07:11:20;;;;;;;5.28;4.40;;;;;;;24.85;52.67;98680.91;5027683;28;20038;-66
2022/07/12 07:13:46;;;;;;;7.78;5.20;;;;;;;24.84;52.84;98671.16;5027787;28;20029;-67
2022/07/12 07:16:12;;;;;;;4.38;3.53;;;;;;;24.87;52.93;98667.97;5027718;28;20120;-67
2022/07/12 07:18:37;;;;;;;5.68;4.03;;;;;;;24.92;52.39;98667.25;5027843;28;20101;-67
2022/07/12 07:21:02;;;;;;;8.90;3.78;;;;;;;24.94;52.16;98665.16;5027812;28;20293;-69
2022/07/12 07:23:28;;;;;;;8.70;4.05;;;;;;;24.96;52.35;98661.13;5027549;28;20135;-68
2022/07/12 07:25:53;;;;;;;12.45;3.53;;;;;;;24.92;52.13;98657.28;5027527;28;20042;-68
2022/07/12 07:28:19;;;;;;;6.88;4.15;;;;;;;24.94;52.01;98649.72;5027583;28;20065;-68
2022/07/12 07:30:54;;;;;;;9.73;3.60;;;;;;;25.05;52.04;98656.19;5027496;28;20044;-68
2022/07/12 07:33:24;;;;;;;9.55;4.00;;;;;;;25.17;52.35;98645.34;5026585;28;20038;-67
2022/07/12 07:35:51;;;;;;;9.05;3.70;;;;;;;25.24;51.79;98654.16;5027509;28;20048;-66
2022/07/12 07:38:17;;;;;;;8.48;3.70;;;;;;;25.32;51.57;98652.13;5027235;28;20072;-68
2022/07/12 07:40:43;;;;;;;9.93;3.28;;;;;;;25.35;51.31;98654.38;5027071;28;20046;-65
2022/07/12 07:43:09;;;;;;;9.65;3.65;;;;;;;25.39;51.06;98655.53;5025412;28;20053;-68
2022/07/12 07:45:34;;;;;;;7.15;3.53;;;;;;;25.40;51.37;98659.88;5026855;28;20033;-66
2022/07/12 07:48:00;;;;;;;10.70;3.35;;;;;;;25.40;51.32;98658.00;5026549;28;20022;-68
2022/07/12 07:50:26;;;;;;;7.22;3.25;;;;;;;25.45;51.19;98662.72;5027250;28;20030;-68
2022/07/12 07:52:52;;;;;;;7.60;3.20;;;;;;;25.48;51.10;98662.25;5027000;28;20131;-68
2022/07/12 07:55:18;;;;;;;7.00;3.15;;;;;;;25.56;51.02;98666.47;5026714;28;20025;-69
2022/07/12 07:57:43;;;;;;;5.47;3.00;;;;;;;25.58;50.53;98670.56;5026980;28;20025;-67
2022/07/12 08:00:10;;;;;;;5.63;3.33;;;;;;;25.53;50.57;98675.88;5027162;28;20198;-67
2022/07/12 08:02:36;;;;;;;6.85;2.72;;;;;;;25.51;50.83;98675.31;5025260;28;20041;-68
2022/07/12 08:05:02;;;;;;;13.40;4.90;;;;;;;25.49;50.90;98679.31;5026785;28;20029;-69
2022/07/12 08:07:27;;;;;;;5.97;3.30;;;;;;;25.53;50.85;98689.41;5026672;28;20089;-67
2022/07/12 08:09:53;;;;;;;6.15;2.80;;;;;;;25.54;50.67;98682.94;5015401;28;20049;-70
2022/07/12 08:12:19;;;;;;;4.68;2.92;;;;;;;25.54;51.12;98692.97;5007051;28;20042;-69
2022/07/12 08:14:44;;;;;;;4.38;2.63;;;;;;;25.52;50.98;98698.59;5007160;28;20109;-70
2022/07/12 08:17:10;;;;;;;5.00;2.90;;;;;;;25.52;50.94;98695.91;5007475;28;20041;-67
2022/07/12 08:19:35;;;;;;;6.32;3.80;;;;;;;25.53;50.96;98696.75;5007257;28;20223;-67
2022/07/12 08:22:00;;;;;;;7.72;3.55;;;;;;;25.56;50.77;98694.38;5019459;28;20033;-69
2022/07/12 08:24:26;;;;;;;7.88;3.30;;;;;;;25.62;50.67;98692.56;5026921;28;20045;-69
2022/07/12 08:26:51;;;;;;;5.88;3.58;;;;;;;25.65;50.93;98696.72;5026550;28;20277;-68
2022/07/12 08:29:17;;;;;;;7.43;3.42;;;;;;;25.71;50.86;98702.00;5026820;28;20025;-66
2022/07/12 08:31:42;;;;;;;9.10;3.20;;;;;;;25.69;51.15;98703.28;5026612;28;20044;-68
2022/07/12 08:34:09;;;;;;;12.23;4.18;;;;;;;25.65;51.13;98697.53;5026686;28;20030;-70
2022/07/12 08:36:34;;;;;;;10.57;3.88;;;;;;;25.68;51.04;98699.75;5026865;28;20030;-69
2022/07/12 08:39:00;;;;;;;13.35;4.68;;;;;;;25.68;51.14;98709.75;5026553;28;20100;-69
2022/07/12 08:41:25;;;;;;;10.80;3.90;;;;;;;25.70;50.93;98708.47;5025657;28;20045;-68
2022/07/12 08:43:51;;;;;;;10.43;4.13;;;;;;;25.71;51.29;98717.41;5024713;28;20029;-69
2022/07/12 08:46:17;;;;;;;6.88;3.17;;;;;;;25.71;50.91;98717.41;5024720;28;20091;-70
2022/07/12 08:48:43;;;;;;;8.48;3.30;;;;;;;25.70;50.97;98711.19;5025756;28;20105;-70
2022/07/12 08:51:19;;;;;;;7.45;3.25;;;;;;;25.67;51.03;98698.09;5031681;28;20026;-68
2022/07/12 08:54:15;;;;;;;10.68;3.95;;;;;;;25.70;51.16;98716.59;5027704;28;20201;-69
2022/07/12 08:56:43;;;;;;;7.22;3.35;;;;;;;25.70;50.85;98722.00;5023731;28;20036;-69
2022/07/12 08:59:10;;;;;;;7.03;3.08;;;;;;;25.70;50.59;98718.47;5024314;28;20045;-68
2022/07/12 09:01:54;;;;;;;10.38;3.53;;;;;;;25.70;50.63;98716.59;5027180;28;20025;-68
2022/07/12 09:04:44;;;;;;;4.07;3.15;;;;;;;25.67;50.28;98725.19;5026116;28;20160;-68
2022/07/12 09:07:14;;;;;;;6.25;3.60;;;;;;;25.67;50.31;98722.50;5024941;28;20049;-69
2022/07/12 09:09:39;;;;;;;8.23;3.63;;;;;;;25.65;50.23;98718.38;5028392;28;20029;-68
2022/07/12 09:12:05;;;;;;;8.43;3.35;;;;;;;25.69;50.21;98723.06;5027953;28;20250;-66
2022/07/12 09:14:43;;;;;;;4.32;3.13;;;;;;;25.73;50.17;98726.13;5027458;28;20303;-67
2022/07/12 09:17:26;;;;;;;8.77;3.08;;;;;;;25.77;50.10;98718.31;5029046;28;20294;-69
2022/07/12 09:20:28;;;;;;;6.57;3.30;;;;;;;25.72;49.50;98728.03;5027121;28;20262;-70
2022/07/12 09:22:56;;;;;;;7.22;3.50;;;;;;;25.65;49.13;98729.22;5032336;28;20033;-69
2022/07/12 09:25:23;;;;;;;5.78;3.20;;;;;;;25.58;49.01;98734.78;5033045;28;20038;-70
2022/07/12 09:27:56;;;;;;;7.38;2.90;;;;;;;25.60;49.07;98743.44;5028311;28;20239;-68
2022/07/12 09:30:24;;;;;;;5.22;2.88;;;;;;;25.57;49.31;98739.34;5029325;28;20137;-69
2022/07/12 09:36:06;;;;;;;7.20;3.08;;;;;;;25.57;49.27;98738.53;5030320;28;20253;-68
2022/07/12 09:38:34;;;;;;;6.53;3.47;;;;;;;25.66;49.08;98741.69;5028868;28;20025;-68
2022/07/12 09:41:00;;;;;;;6.60;3.10;;;;;;;25.71;48.81;98744.50;5034881;28;20029;-69
2022/07/12 09:43:26;;;;;;;5.22;3.13;;;;;;;25.75;48.90;98734.84;5029250;28;20194;-69
2022/07/12 09:45:52;;;;;;;6.32;3.60;;;;;;;25.79;48.41;98738.72;5027752;28;20274;-69
2022/07/12 09:48:20;;;;;;;7.28;3.22;;;;;;;25.82;48.60;98751.75;5028976;28;20113;-68
2022/07/12 09:50:50;;;;;;;7.47;3.28;;;;;;;25.82;48.32;98751.75;5014394;28;20053;-70
2022/07/12 09:53:22;;;;;;;7.00;3.38;;;;;;;25.79;48.57;98752.25;5030037;28;20194;-70
2022/07/12 09:55:51;;;;;;;6.82;3.38;;;;;;;25.81;48.68;98750.09;5029390;28;20038;-69
2022/07/12 09:58:23;;;;;;;7.03;3.40;;;;;;;25.81;48.76;98760.94;5029204;28;20026;-69
2022/07/12 10:00:51;;;;;;;10.25;3.22;;;;;;;25.75;48.85;98745.66;5029235;28;20026;-69
2022/07/12 10:03:20;;;;;;;6.65;3.72;;;;;;;25.72;48.96;98755.13;5028764;28;20025;-70
2022/07/12 10:05:48;;;;;;;12.02;3.40;;;;;;;25.69;48.74;98768.28;5028731;28;20053;-69
2022/07/12 10:08:13;;;;;;;5.38;3.40;;;;;;;25.66;49.09;98774.22;5028674;28;20233;-69
2022/07/12 10:10:39;;;;;;;7.63;3.58;;;;;;;25.69;49.07;98779.97;5029008;28;20025;-69
2022/07/12 10:13:05;;;;;;;9.65;3.20;;;;;;;25.73;48.80;98775.69;5028752;28;20223;-68
2022/07/12 10:15:32;;;;;;;5.28;3.05;;;;;;;25.80;48.46;98766.63;5028139;28;20093;-68
2022/07/12 10:18:00;;;;;;;10.10;3.17;;;;;;;25.84;48.67;98771.31;5028809;28;20036;-69
2022/07/12 10:20:27;;;;;;;4.55;2.72;;;;;;;25.88;48.21;98788.75;5028513;28;20318;-69
2022/07/12 10:22:54;;;;;;;5.60;2.58;;;;;;;25.90;48.26;98791.22;5028776;28;20033;-70
2022/07/12 10:25:25;;;;;;;5.75;2.63;;;;;;;25.95;47.57;98787.81;5027960;28;20037;-69
2022/07/12 10:27:51;;;;;;;5.63;2.67;;;;;;;25.97;47.37;98772.09;5027998;28;20056;-69
2022/07/12 10:30:22;;;;;;;3.70;2.05;;;;;;;25.99;47.11;98797.91;5028651;28;20029;-70
2022/07/12 10:32:48;;;;;;;;;;;;;;;25.93;47.08;98809.72;5028970;28;20097;-70
2022/07/12 10:35:22;;;;;;;4.70;1.55;;;;;;;25.97;46.53;98799.19;5028164;28;19959;-70
2022/07/12 10:38:09;;;;;;;4.63;1.75;;;;;;;26.00;45.83;98804.16;5027579;28;20026;-69
2022/07/12 10:40:35;;;;;;;3.05;1.48;;;;;;;26.01;45.49;98811.22;5010533;28;20050;-69
2022/07/12 10:43:00;;;;;;;3.22;1.13;;;;;;;26.02;45.18;98804.72;5028352;28;20041;-69
2022/07/12 10:45:33;;;;;;;3.90;1.20;;;;;;;25.98;44.58;98808.97;5028483;28;20044;-69
2022/07/12 10:48:01;;;;;;;4.13;1.33;;;;;;;25.95;44.18;98818.44;5028644;28;20138;-70
2022/07/12 10:53:18;;;;;;;1.70;1.17;;;;;;;25.96;44.34;98811.09;5028574;28;20250;-68
2022/07/12 10:56:03;;;;;;;3.00;0.95;;;;;;;26.00;44.01;98809.56;5028311;28;21049;-69
2022/07/12 10:58:36;;;;;;;2.80;1.10;;;;;;;26.02;43.74;98812.88;5028159;28;20037;-68
2022/07/12 11:01:06;;;;;;;1.40;0.85;;;;;;;26.03;43.62;98822.66;5028196;28;20057;-69
2022/07/12 11:03:52;;;;;;;5.10;0.82;;;;;;;25.98;44.03;98815.25;5027954;28;20089;-69
2022/07/12 11:06:20;;;;;;;1.25;0.95;;;;;;;25.98;44.06;98814.41;5014506;28;20156;-69
2022/07/12 11:09:09;;;;;;;1.88;1.23;;;;;;;25.97;43.86;98824.44;5028057;28;20030;-69
2022/07/12 11:11:41;;;;;;;2.75;0.90;;;;;;;25.95;44.06;98823.03;5018873;28;20093;-69
2022/07/12 11:14:07;;;;;;;4.00;1.17;;;;;;;25.93;44.17;98815.13;5028231;28;20036;-69
2022/07/12 11:16:32;;;;;;;5.38;0.80;;;;;;;25.94;43.89;98827.63;5027738;28;20105;-69
2022/07/12 11:18:58;;;;;;;2.63;1.02;;;;;;;25.97;43.73;98826.31;5027938;28;20097;-69
2022/07/12 11:21:24;;;;;;;2.55;0.80;;;;;;;25.92;43.28;98828.94;5027710;28;20038;-70
2022/07/12 11:23:50;;;;;;;5.95;1.10;;;;;;;25.86;43.39;98834.22;5029410;28;20064;-66
2022/07/12 11:26:57;;;;;;;3.92;1.00;;;;;;;25.82;43.44;98840.38;5027436;28;20038;-69
2022/07/12 11:29:55;;;;;;;2.33;0.95;;;;;;;25.79;43.88;98828.13;5007794;28;20030;-69
2022/07/12 11:32:33;;;;;;;2.22;1.02;;;;;;;25.84;43.80;98841.78;5023516;28;20113;-70
2022/07/12 11:35:36;;;;;;;2.10;1.25;;;;;;;25.92;43.78;98847.91;5026355;28;20162;-68
2022/07/12 11:38:02;;;;;;;4.55;1.40;;;;;;;25.96;44.11;98840.91;5028015;28;20049;-71
2022/07/12 11:40:30;;;;;;;3.15;0.98;;;;;;;26.00;44.00;98844.81;5029503;28;20106;-70
2022/07/12 11:42:58;;;;;;;6.43;1.92;;;;;;;26.01;44.22;98843.75;5027173;28;20053;-70
2022/07/12 11:45:28;;;;;;;5.80;1.10;;;;;;;26.03;44.20;98850.56;5038579;28;20042;-69